Time;durP1;ratioP1;P1;durP2;ratioP2;P2;SDS_P1;SDS_P2;PMS_P1;PMS_P2;Temp;Humidity;BMP_temperature;BMP_pressure;BME280_temperature;BME280_humidity;BME280_pressure;Samples;Min_cycle;Max_cycle;Signal;HPM_P1;HPM_P2
2023/12/05 00:00:45;;;;;;;7.15;3.22;;;;;;;-2.96;51.75;100539.88;5009101;28;20297;-64
2023/12/05 00:03:11;;;;;;;5.18;2.92;;;;;;;-3.51;53.19;100534.97;5004988;28;20046;-65
2023/12/05 00:05:36;;;;;;;8.90;4.72;;;;;;;-3.29;52.91;100535.25;5008638;28;20122;-65
2023/12/05 00:08:04;;;;;;;8.40;3.83;;;;;;;-3.48;53.28;100535.00;4995184;28;20037;-65
2023/12/05 00:10:30;;;;;;;6.60;3.22;;;;;;;-3.50;53.97;100526.44;5009546;28;20060;-64
2023/12/05 00:12:56;;;;;;;9.20;4.78;;;;;;;-3.51;53.63;100529.88;5007784;28;20036;-63
2023/12/05 00:15:26;;;;;;;8.55;3.72;;;;;;;-3.63;53.95;100529.72;5004970;28;20539;-64
2023/12/05 00:17:56;;;;;;;6.07;3.60;;;;;;;-3.52;54.22;100528.16;5005992;28;20065;-65
2023/12/05 00:20:22;;;;;;;10.02;4.75;;;;;;;-3.35;53.93;100522.38;4991871;28;20062;-64
2023/12/05 00:22:47;;;;;;;9.20;4.30;;;;;;;-3.38;54.39;100524.91;5008556;28;20559;-65
2023/12/05 00:25:18;;;;;;;8.25;4.22;;;;;;;-3.20;54.20;100524.28;5005527;28;20446;-65
2023/12/05 00:27:48;;;;;;;12.40;5.03;;;;;;;-3.33;54.38;100520.72;5007054;28;20484;-64
2023/12/05 00:30:19;;;;;;;8.40;4.47;;;;;;;-3.52;54.57;100523.06;5002996;28;20542;-63
2023/12/05 00:32:54;;;;;;;7.82;4.63;;;;;;;-3.36;54.72;100521.53;4999196;28;20047;-65
2023/12/05 00:35:22;;;;;;;11.18;4.30;;;;;;;-3.37;54.90;100511.28;5018528;28;21531;-64
2023/12/05 00:37:47;;;;;;;8.68;4.28;;;;;;;-3.50;55.40;100505.16;5009073;28;20550;-64
2023/12/05 00:40:15;;;;;;;10.98;5.47;;;;;;;-3.29;55.04;100504.56;5004459;28;20037;-64
2023/12/05 00:42:43;;;;;;;9.95;5.05;;;;;;;-3.43;55.43;100491.63;5004507;28;20080;-64
2023/12/05 00:45:13;;;;;;;9.23;4.90;;;;;;;-3.20;54.68;100499.56;4997047;28;20053;-63
2023/12/05 00:47:44;;;;;;;8.32;4.05;;;;;;;-3.36;55.44;100505.31;4994799;28;20404;-64
2023/12/05 00:50:14;;;;;;;11.93;4.97;;;;;;;-3.49;55.65;100497.53;5021666;28;20050;-64
2023/12/05 00:52:39;;;;;;;9.32;4.32;;;;;;;-3.37;55.58;100495.94;5006674;28;20037;-64
2023/12/05 00:55:05;;;;;;;10.15;5.65;;;;;;;-3.43;55.80;100498.44;5000877;28;20037;-65
2023/12/05 00:57:30;;;;;;;9.93;5.10;;;;;;;-3.51;56.36;100496.66;5008492;28;20495;-63
2023/12/05 00:59:56;;;;;;;11.27;5.00;;;;;;;-3.61;56.52;100494.81;5008159;28;20041;-67
2023/12/05 01:02:24;;;;;;;12.90;5.15;;;;;;;-3.28;55.61;100496.06;4986482;28;20555;-66
2023/12/05 01:04:53;;;;;;;12.33;5.90;;;;;;;-3.31;55.82;100493.47;5001001;28;20046;-65
2023/12/05 01:07:19;;;;;;;9.68;5.50;;;;;;;-3.33;55.73;100495.16;5003818;28;20057;-66
2023/12/05 01:09:47;;;;;;;9.85;4.75;;;;;;;-3.14;55.64;100496.19;4998172;28;20038;-67
2023/12/05 01:12:15;;;;;;;12.77;5.15;;;;;;;-3.53;56.54;100495.78;5006642;28;20475;-63
2023/12/05 01:14:48;;;;;;;11.18;5.03;;;;;;;-3.44;56.69;100495.03;5007494;28;20065;-63
2023/12/05 01:17:21;;;;;;;10.48;5.03;;;;;;;-3.35;56.71;100495.13;5005450;28;20041;-63
2023/12/05 01:19:46;;;;;;;9.77;5.50;;;;;;;-3.48;56.87;100491.56;5005008;28;20033;-67
2023/12/05 01:22:12;;;;;;;10.05;5.28;;;;;;;-3.38;56.70;100489.13;5006456;28;20552;-68
2023/12/05 01:24:54;;;;;;;17.48;5.90;;;;;;;-3.60;57.20;100483.78;4996243;28;21626;-69
2023/12/05 01:27:20;;;;;;;12.10;5.10;;;;;;;-3.28;56.76;100491.78;5002409;28;20037;-65
2023/12/05 01:29:46;;;;;;;12.75;6.07;;;;;;;-3.36;57.18;100490.88;5022113;28;20045;-68
2023/12/05 01:32:19;;;;;;;12.60;5.25;;;;;;;-3.34;57.27;100491.75;4988756;28;20025;-68
2023/12/05 01:34:49;;;;;;;12.98;4.90;;;;;;;-3.41;56.71;100487.38;4997195;28;20049;-68
2023/12/05 01:37:17;;;;;;;14.80;5.97;;;;;;;-3.57;57.67;100488.91;5005264;28;20033;-64
2023/12/05 01:39:45;;;;;;;12.65;6.07;;;;;;;-3.46;57.62;100487.31;4995401;28;20037;-65
2023/12/05 01:42:13;;;;;;;10.43;5.43;;;;;;;-3.38;57.59;100478.91;5000700;28;20134;-65
2023/12/05 01:44:42;;;;;;;17.13;6.78;;;;;;;-3.41;57.60;100483.97;5007033;28;20064;-65
2023/12/05 01:47:11;;;;;;;13.85;6.53;;;;;;;-3.63;58.25;100480.31;5004716;28;20079;-64
2023/12/05 01:49:40;;;;;;;15.07;5.78;;;;;;;-3.54;58.03;100476.19;4988509;28;20115;-63
2023/12/05 01:52:08;;;;;;;14.30;6.78;;;;;;;-3.47;57.84;100477.13;5006955;28;20028;-64
2023/12/05 01:54:34;;;;;;;12.10;6.47;;;;;;;-3.57;57.97;100478.69;4984941;28;20037;-64
2023/12/05 01:57:09;;;;;;;15.75;6.20;;;;;;;-3.49;57.67;100479.63;5005087;28;20030;-65
2023/12/05 01:59:59;;;;;;;12.25;6.65;;;;;;;-3.62;58.33;100470.13;5005751;28;20037;-65
2023/12/05 02:02:27;;;;;;;10.95;5.57;;;;;;;-3.69;58.34;100466.63;5003260;28;20049;-65
2023/12/05 02:05:03;;;;;;;17.58;6.50;;;;;;;-3.70;57.90;100475.16;5005995;28;20527;-65
2023/12/05 02:07:41;;;;;;;13.77;5.90;;;;;;;-3.89;58.79;100471.47;5011930;28;20119;-64
2023/12/05 02:10:08;;;;;;;13.00;6.03;;;;;;;-3.66;57.97;100465.81;5006825;28;20506;-64
2023/12/05 02:12:43;;;;;;;15.05;6.55;;;;;;;-3.48;57.68;100463.44;4996532;28;20025;-64
2023/12/05 02:15:17;;;;;;;15.48;7.00;;;;;;;-3.60;58.03;100465.88;5003139;28;20065;-64
2023/12/05 02:18:00;;;;;;;18.35;6.85;;;;;;;-3.75;58.01;100469.09;5006361;28;20037;-65
2023/12/05 02:20:34;;;;;;;14.13;6.05;;;;;;;-3.78;58.34;100458.84;4994688;28;20045;-68
2023/12/05 02:23:02;;;;;;;17.05;7.60;;;;;;;-3.55;57.71;100465.94;4978923;28;20105;-68
2023/12/05 02:25:46;;;;;;;16.50;8.10;;;;;;;-3.34;57.23;100457.63;5003394;28;20095;-67
2023/12/05 02:28:22;;;;;;;14.27;5.68;;;;;;;-3.39;57.49;100467.81;4997788;28;20053;-67
2023/12/05 02:30:47;;;;;;;12.70;5.93;;;;;;;-3.41;57.55;100459.28;4987804;28;20029;-65
2023/12/05 02:33:15;;;;;;;16.88;8.13;;;;;;;-3.60;57.81;100454.81;5004113;28;20065;-65
2023/12/05 02:35:49;;;;;;;13.77;6.45;;;;;;;-3.38;57.64;100450.81;5005610;28;20301;-65
2023/12/05 02:38:42;;;;;;;11.35;5.75;;;;;;;-3.44;57.86;100450.72;5003194;28;20103;-65
2023/12/05 02:41:20;;;;;;;14.85;7.03;;;;;;;-3.50;57.60;100446.41;5006255;28;20084;-64
2023/12/05 02:44:14;;;;;;;14.48;6.07;;;;;;;-3.38;57.52;100448.25;4989977;28;21184;-66
2023/12/05 02:46:41;;;;;;;15.05;6.05;;;;;;;-3.44;57.72;100443.91;5000161;28;20042;-66
2023/12/05 02:49:09;;;;;;;14.32;6.60;;;;;;;-3.47;57.81;100441.34;5002240;28;20546;-66
2023/12/05 02:51:38;;;;;;;13.73;7.45;;;;;;;-3.77;58.19;100450.34;4982635;28;20104;-65
2023/12/05 02:54:12;;;;;;;14.90;6.82;;;;;;;-3.64;57.72;100441.13;5001488;28;20503;-66
2023/12/05 02:56:40;;;;;;;14.95;5.93;;;;;;;-3.43;57.66;100439.66;5004930;28;20039;-65
2023/12/05 02:59:09;;;;;;;14.15;6.30;;;;;;;-3.53;58.11;100444.66;5009618;28;20112;-65
2023/12/05 03:01:41;;;;;;;13.57;6.90;;;;;;;-3.59;57.95;100441.19;4996401;28;20035;-65
2023/12/05 03:04:15;;;;;;;12.82;6.10;;;;;;;-3.63;58.12;100437.75;5007631;28;20041;-63
2023/12/05 03:06:51;;;;;;;11.48;5.20;;;;;;;-3.72;58.40;100445.28;5008686;28;20025;-64
2023/12/05 03:09:19;;;;;;;14.57;6.80;;;;;;;-3.77;58.33;100445.22;5010464;28;20396;-64
2023/12/05 03:11:47;;;;;;;19.70;8.15;;;;;;;-3.86;58.88;100440.03;5009601;28;20034;-63
2023/12/05 03:14:13;;;;;;;17.88;8.40;;;;;;;-3.60;58.32;100442.03;5010781;28;20753;-63
2023/12/05 03:16:44;;;;;;;14.32;6.25;;;;;;;-3.96;58.96;100431.41;5011910;28;20044;-63
2023/12/05 03:19:10;;;;;;;13.30;6.37;;;;;;;-3.99;59.20;100428.78;4991501;28;20079;-64
2023/12/05 03:21:40;;;;;;;14.35;6.18;;;;;;;-3.75;58.50;100429.94;5007735;28;20390;-69
2023/12/05 03:24:06;;;;;;;14.77;6.55;;;;;;;-3.58;58.28;100430.16;5011678;28;20041;-68
2023/12/05 03:26:34;;;;;;;20.42;6.65;;;;;;;-3.82;59.16;100430.72;5004438;28;21567;-65
2023/12/05 03:29:06;;;;;;;11.23;5.68;;;;;;;-3.82;59.02;100425.59;5009077;28;20116;-67
2023/12/05 03:31:40;;;;;;;12.18;6.47;;;;;;;-3.70;58.95;100430.84;4992554;28;20041;-66
2023/12/05 03:34:08;;;;;;;13.63;5.35;;;;;;;-3.65;58.72;100428.34;5003053;28;20045;-68
2023/12/05 03:36:34;;;;;;;12.77;6.28;;;;;;;-3.40;57.84;100419.25;5008297;28;20095;-66
2023/12/05 03:38:59;;;;;;;19.45;7.63;;;;;;;-3.75;58.99;100427.38;5002037;28;20046;-67
2023/12/05 03:41:27;;;;;;;14.85;8.00;;;;;;;-3.73;59.16;100430.81;5008477;28;20042;-67
2023/12/05 03:43:55;;;;;;;16.00;6.35;;;;;;;-3.61;58.82;100430.09;5007016;28;21373;-67
2023/12/05 03:46:23;;;;;;;16.58;6.88;;;;;;;-3.68;59.10;100424.06;5005775;28;20565;-68
2023/12/05 03:48:53;;;;;;;12.68;6.20;;;;;;;-3.50;58.64;100423.41;4995941;28;20049;-67
2023/12/05 03:51:28;;;;;;;14.50;7.55;;;;;;;-3.57;58.51;100422.47;5008459;28;20630;-67
2023/12/05 03:53:56;;;;;;;22.73;7.82;;;;;;;-3.44;58.25;100422.63;5022046;28;20056;-65
2023/12/05 03:56:31;;;;;;;20.23;7.53;;;;;;;-3.57;58.64;100427.59;5006640;28;20033;-66
2023/12/05 03:58:57;;;;;;;16.02;7.35;;;;;;;-3.42;58.35;100423.50;5007818;28;20121;-65
2023/12/05 04:01:27;;;;;;;15.75;7.20;;;;;;;-3.59;58.83;100426.72;5007955;28;20094;-67
2023/12/05 04:03:58;;;;;;;15.90;6.85;;;;;;;-3.49;58.96;100423.44;5007961;28;20037;-66
2023/12/05 04:06:28;;;;;;;16.67;7.25;;;;;;;-3.74;59.33;100424.84;4990717;28;20128;-64
2023/12/05 04:08:54;;;;;;;11.90;6.72;;;;;;;-3.63;58.95;100416.44;4989600;28;20033;-69
2023/12/05 04:11:33;;;;;;;14.68;6.93;;;;;;;-3.53;59.03;100419.13;5008692;28;20021;-67
2023/12/05 04:14:02;;;;;;;15.88;6.70;;;;;;;-3.37;58.44;100429.50;4989142;28;20534;-66
2023/12/05 04:16:34;;;;;;;15.15;8.00;;;;;;;-3.62;58.96;100429.25;5008742;28;20030;-68
2023/12/05 04:19:05;;;;;;;16.15;6.95;;;;;;;-3.65;59.21;100429.22;4996364;28;20244;-68
2023/12/05 04:21:38;;;;;;;15.13;7.03;;;;;;;-3.70;59.15;100430.84;5004667;28;21367;-67
2023/12/05 04:24:14;;;;;;;13.15;6.18;;;;;;;-3.57;59.12;100425.03;5007120;28;20033;-68
2023/12/05 04:26:39;;;;;;;19.05;8.18;;;;;;;-3.68;59.40;100429.16;5004057;28;20784;-67
2023/12/05 04:29:07;;;;;;;14.32;6.95;;;;;;;-3.51;59.45;100432.78;5009207;28;20041;-68
2023/12/05 04:31:35;;;;;;;18.70;9.25;;;;;;;-3.61;59.54;100420.72;5006693;28;20116;-69
2023/12/05 04:34:02;;;;;;;10.77;6.20;;;;;;;-3.76;59.73;100425.69;5003873;28;20060;-68
2023/12/05 04:36:39;;;;;;;21.75;8.52;;;;;;;-3.59;59.41;100429.25;5007588;28;20662;-71
2023/12/05 04:39:06;;;;;;;20.90;8.27;;;;;;;-3.62;59.79;100434.34;5009041;28;20040;-69
2023/12/05 04:41:33;;;;;;;19.63;8.00;;;;;;;-3.89;60.30;100428.06;5003486;28;20037;-67
2023/12/05 04:44:04;;;;;;;15.50;7.90;;;;;;;-3.86;60.33;100429.81;5008667;28;20553;-67
2023/12/05 04:46:29;;;;;;;17.95;8.27;;;;;;;-3.74;59.92;100418.88;5002782;28;20044;-66
2023/12/05 04:48:57;;;;;;;15.85;8.50;;;;;;;-3.59;60.04;100428.41;5004452;28;21594;-66
2023/12/05 04:51:28;;;;;;;21.10;8.05;;;;;;;-3.59;59.62;100431.81;5003971;28;20029;-66
2023/12/05 04:53:53;;;;;;;17.45;8.73;;;;;;;-3.63;59.80;100427.53;4974757;28;20042;-67
2023/12/05 04:56:22;;;;;;;21.73;8.40;;;;;;;-3.65;60.04;100434.31;5008750;28;20041;-66
2023/12/05 04:58:51;;;;;;;17.98;8.50;;;;;;;-3.51;59.40;100432.78;4995512;28;20106;-69
2023/12/05 05:01:21;;;;;;;18.92;7.15;;;;;;;-3.72;60.13;100433.41;5017104;28;20111;-66
2023/12/05 05:03:51;;;;;;;16.23;8.38;;;;;;;-3.91;60.87;100436.56;4994461;28;20038;-66
2023/12/05 05:06:24;;;;;;;18.83;9.20;;;;;;;-3.59;60.10;100436.06;5005909;28;20116;-67
2023/12/05 05:08:49;;;;;;;16.20;9.07;;;;;;;-3.59;60.16;100436.94;5003360;28;20045;-67
2023/12/05 05:11:23;;;;;;;15.82;8.60;;;;;;;-3.58;60.02;100436.09;5006685;28;20116;-66
2023/12/05 05:13:51;;;;;;;20.65;9.07;;;;;;;-3.45;59.65;100432.00;4988389;28;20131;-66
2023/12/05 05:16:17;;;;;;;25.63;10.13;;;;;;;-3.60;60.47;100437.78;5017484;28;20068;-67
2023/12/05 05:18:44;;;;;;;18.25;9.35;;;;;;;-3.76;60.52;100435.91;5004089;28;20504;-66
2023/12/05 05:21:11;;;;;;;18.15;9.20;;;;;;;-3.70;60.29;100428.28;5006789;28;20048;-67
2023/12/05 05:23:41;;;;;;;16.80;8.82;;;;;;;-3.76;60.21;100435.91;5003433;28;20150;-65
2023/12/05 05:26:07;;;;;;;17.48;8.80;;;;;;;-3.74;60.60;100435.06;5006987;28;20079;-65
2023/12/05 05:28:40;;;;;;;21.05;8.68;;;;;;;-3.70;60.33;100441.06;5004181;28;20045;-66
2023/12/05 05:31:06;;;;;;;17.30;9.10;;;;;;;-3.78;60.47;100442.69;5007901;28;20036;-66
2023/12/05 05:33:34;;;;;;;21.13;9.20;;;;;;;-3.60;60.11;100432.69;5000250;28;20037;-67
2023/12/05 05:36:04;;;;;;;21.25;9.40;;;;;;;-3.63;60.44;100429.22;5008601;28;20549;-66
2023/12/05 05:38:30;;;;;;;18.50;8.93;;;;;;;-3.79;60.34;100430.75;5001618;28;20519;-66
2023/12/05 05:41:06;;;;;;;20.60;10.43;;;;;;;-3.64;60.23;100433.47;5017177;28;20044;-66
2023/12/05 05:43:36;;;;;;;21.55;9.00;;;;;;;-3.51;59.80;100437.88;5004166;28;20188;-66
2023/12/05 05:46:04;;;;;;;25.65;9.05;;;;;;;-3.46;59.80;100426.00;5003375;28;20044;-67
2023/12/05 05:48:29;;;;;;;21.13;8.93;;;;;;;-3.54;59.98;100436.97;5004010;28;20041;-68
2023/12/05 05:50:57;;;;;;;20.33;10.05;;;;;;;-3.30;59.06;100431.28;5003117;28;20068;-69
2023/12/05 05:53:25;;;;;;;19.17;9.65;;;;;;;-3.35;59.13;100432.94;5000439;28;20064;-65
2023/12/05 05:55:53;;;;;;;14.93;7.85;;;;;;;-3.67;60.28;100436.00;5007325;28;20514;-63
2023/12/05 05:58:19;;;;;;;21.92;10.15;;;;;;;-3.29;59.34;100433.00;5007719;28;20044;-65
2023/12/05 06:00:45;;;;;;;19.25;9.73;;;;;;;-3.31;59.38;100432.13;5006553;28;20638;-64
2023/12/05 06:03:10;;;;;;;21.85;9.40;;;;;;;-3.57;60.17;100432.69;5005564;28;20042;-64
2023/12/05 06:05:35;;;;;;;23.58;10.35;;;;;;;-3.53;60.04;100441.25;5003035;28;20522;-65
2023/12/05 06:08:03;;;;;;;20.42;10.38;;;;;;;-3.63;60.25;100432.66;5015618;28;20037;-64
2023/12/05 06:10:35;;;;;;;24.20;10.00;;;;;;;-3.59;60.18;100433.53;5017733;28;20468;-63
2023/12/05 06:13:06;;;;;;;19.95;9.55;;;;;;;-3.67;60.10;100438.56;5002740;28;20684;-65
2023/12/05 06:15:31;;;;;;;23.10;9.88;;;;;;;-3.44;59.98;100448.19;5005701;28;20037;-64
2023/12/05 06:17:59;;;;;;;19.48;9.27;;;;;;;-3.55;60.17;100446.34;4995105;28;20037;-64
2023/12/05 06:20:27;;;;;;;26.02;9.90;;;;;;;-3.37;59.53;100445.69;5018029;28;20037;-64
2023/12/05 06:22:52;;;;;;;21.75;10.18;;;;;;;-3.47;59.81;100449.84;5007318;28;20488;-67
2023/12/05 06:25:18;;;;;;;19.88;10.35;;;;;;;-3.54;59.60;100450.63;5007499;28;20044;-68
2023/12/05 06:27:46;;;;;;;22.38;10.45;;;;;;;-3.48;59.54;100445.56;5000850;28;20123;-67
2023/12/05 06:30:22;;;;;;;20.70;10.07;;;;;;;-3.39;59.77;100447.38;4995066;28;20029;-66
2023/12/05 06:32:57;;;;;;;19.55;9.50;;;;;;;-3.49;59.39;100455.78;4979100;28;20409;-66
2023/12/05 06:35:27;;;;;;;27.27;9.25;;;;;;;-3.66;60.02;100440.25;5020871;28;20121;-67
2023/12/05 06:37:55;;;;;;;19.52;9.32;;;;;;;-3.52;59.66;100451.50;5003211;28;20029;-67
2023/12/05 06:40:23;;;;;;;23.13;9.48;;;;;;;-3.40;59.50;100449.94;5011769;28;20460;-67
2023/12/05 06:42:51;;;;;;;23.98;11.13;;;;;;;-3.37;59.09;100455.91;5006870;28;20038;-67
2023/12/05 06:45:19;;;;;;;21.35;9.68;;;;;;;-3.58;59.94;100455.69;5000756;28;20569;-67
2023/12/05 06:47:45;;;;;;;20.90;9.73;;;;;;;-3.56;59.79;100449.75;5006911;28;20044;-68
2023/12/05 06:50:11;;;;;;;20.58;10.48;;;;;;;-3.49;59.71;100443.03;5008766;28;20112;-66
2023/12/05 06:52:40;;;;;;;23.90;9.98;;;;;;;-3.33;58.92;100449.16;4997731;28;20037;-64
2023/12/05 06:55:08;;;;;;;22.65;9.88;;;;;;;-3.39;59.25;100451.63;4997199;28;20139;-65
2023/12/05 06:57:35;;;;;;;20.60;9.52;;;;;;;-3.51;59.50;100453.22;5008342;28;20227;-64
2023/12/05 07:00:03;;;;;;;19.45;9.48;;;;;;;-3.51;59.55;100462.59;5007670;28;20045;-64
2023/12/05 07:02:30;;;;;;;23.17;10.85;;;;;;;-3.50;59.43;100457.47;5005147;28;20496;-65
2023/12/05 07:05:11;;;;;;;22.42;11.23;;;;;;;-3.51;59.78;100468.53;4994448;28;20040;-63
2023/12/05 07:07:37;;;;;;;23.88;10.18;;;;;;;-3.55;59.71;100459.13;5008448;28;20242;-64
2023/12/05 07:10:10;;;;;;;23.85;9.68;;;;;;;-3.40;59.25;100460.16;5010758;28;20141;-64
2023/12/05 07:12:38;;;;;;;21.00;10.13;;;;;;;-3.44;59.63;100463.50;4990160;28;20033;-64
2023/12/05 07:15:07;;;;;;;20.20;8.98;;;;;;;-3.48;59.13;100467.72;5006267;28;20048;-65
2023/12/05 07:17:38;;;;;;;22.52;9.57;;;;;;;-3.48;59.49;100463.44;5006354;28;20048;-66
2023/12/05 07:20:06;;;;;;;20.70;9.88;;;;;;;-3.50;59.36;100460.03;4982419;28;20500;-65
2023/12/05 07:22:33;;;;;;;21.88;9.95;;;;;;;-3.50;59.09;100470.25;5005897;28;20029;-64
2023/12/05 07:25:06;;;;;;;23.95;11.20;;;;;;;-3.49;59.03;100471.13;5007178;28;20106;-64
2023/12/05 07:27:39;;;;;;;22.13;10.05;;;;;;;-3.61;59.71;100471.81;5002076;28;20029;-64
2023/12/05 07:30:08;;;;;;;20.13;10.68;;;;;;;-3.64;59.64;100470.94;5007746;28;20061;-65
2023/12/05 07:32:33;;;;;;;21.15;10.25;;;;;;;-3.63;59.75;100467.53;5004642;28;20480;-69
2023/12/05 07:35:01;;;;;;;19.50;11.05;;;;;;;-3.60;59.31;100473.56;5000428;28;20964;-63
2023/12/05 07:37:34;;;;;;;22.70;11.07;;;;;;;-3.30;58.71;100475.56;5005584;28;20599;-64
2023/12/05 07:40:13;;;;;;;23.77;10.75;;;;;;;-3.35;58.76;100476.38;4983474;28;20056;-66
2023/12/05 07:42:44;;;;;;;20.33;9.90;;;;;;;-3.59;59.32;100482.91;5002377;28;20125;-63
2023/12/05 07:45:09;;;;;;;25.58;10.95;;;;;;;-3.55;59.23;100482.13;5006582;28;20049;-64
2023/12/05 07:47:39;;;;;;;29.70;12.43;;;;;;;-3.36;58.51;100480.66;5009012;28;20033;-65
2023/12/05 07:50:09;;;;;;;26.67;10.48;;;;;;;-3.49;58.92;100481.34;4981501;28;20045;-65
2023/12/05 07:52:37;;;;;;;22.10;10.70;;;;;;;-3.51;59.23;100491.53;5014194;28;20369;-65
2023/12/05 07:55:03;;;;;;;22.05;10.65;;;;;;;-3.27;58.69;100493.53;5004493;28;20049;-64
2023/12/05 07:57:30;;;;;;;21.98;10.88;;;;;;;-3.50;58.92;100492.38;5007205;28;20033;-65
2023/12/05 07:59:56;;;;;;;20.85;10.70;;;;;;;-3.59;58.70;100489.72;5007641;28;20088;-65
2023/12/05 08:02:27;;;;;;;22.27;9.45;;;;;;;-3.39;58.97;100495.06;5004045;28;20069;-65
2023/12/05 08:04:57;;;;;;;22.45;10.65;;;;;;;-3.40;58.63;100493.38;5007185;28;20080;-65
2023/12/05 08:07:26;;;;;;;24.88;10.32;;;;;;;-3.48;58.88;100495.81;5007986;28;20073;-65
2023/12/05 08:09:54;;;;;;;22.38;10.82;;;;;;;-3.70;59.42;100497.25;5011490;28;23362;-64
2023/12/05 08:12:22;;;;;;;19.98;10.68;;;;;;;-3.41;58.78;100496.75;5005865;28;20033;-65
2023/12/05 08:14:52;;;;;;;26.60;11.50;;;;;;;-3.50;58.58;100500.06;4988204;28;20041;-64
2023/12/05 08:17:18;;;;;;;25.40;11.75;;;;;;;-3.64;59.00;100506.69;5005674;28;20764;-65
2023/12/05 08:19:43;;;;;;;22.23;10.98;;;;;;;-3.34;58.04;100508.75;5001989;28;20052;-64
2023/12/05 08:22:11;;;;;;;27.05;12.52;;;;;;;-3.36;58.18;100502.75;5008534;28;20046;-65
2023/12/05 08:24:44;;;;;;;23.42;10.85;;;;;;;-3.39;58.01;100507.84;5016462;28;20037;-65
2023/12/05 08:27:12;;;;;;;24.35;12.05;;;;;;;-3.31;58.20;100506.25;5007897;28;20549;-65
2023/12/05 08:29:39;;;;;;;22.80;10.35;;;;;;;-3.38;58.33;100500.22;4999892;28;20058;-65
2023/12/05 08:32:09;;;;;;;25.77;11.40;;;;;;;-3.62;58.95;100505.88;4989812;28;20022;-65
2023/12/05 08:34:39;;;;;;;23.80;12.80;;;;;;;-3.36;58.49;100507.88;5000474;28;20451;-64
2023/12/05 08:37:07;;;;;;;21.05;10.75;;;;;;;-3.21;58.04;100504.66;5002163;28;20041;-65
2023/12/05 08:39:32;;;;;;;29.33;13.02;;;;;;;-3.13;57.92;100503.03;5003696;28;20080;-64
2023/12/05 08:42:00;;;;;;;22.23;12.23;;;;;;;-3.01;57.80;100503.16;4984662;28;20164;-64
2023/12/05 08:44:33;;;;;;;30.75;12.23;;;;;;;-3.28;58.25;100503.72;4999366;28;20037;-66
2023/12/05 08:47:01;;;;;;;22.42;12.20;;;;;;;-3.17;57.78;100511.50;5010097;28;20033;-65
2023/12/05 08:49:29;;;;;;;27.63;12.93;;;;;;;-3.40;58.39;100508.69;5006340;28;20071;-64
2023/12/05 08:51:55;;;;;;;29.42;13.35;;;;;;;-3.28;58.40;100499.47;5008866;28;20021;-65
2023/12/05 08:54:28;;;;;;;29.58;12.50;;;;;;;-3.11;57.67;100507.31;4992506;28;20037;-65
2023/12/05 08:56:58;;;;;;;26.85;13.35;;;;;;;-3.04;57.68;100510.78;5004919;28;21387;-64
2023/12/05 08:59:29;;;;;;;25.92;10.15;;;;;;;-3.04;57.10;100513.34;4993697;28;20065;-65
2023/12/05 09:01:58;;;;;;;20.77;10.30;;;;;;;-3.18;57.67;100513.22;5006540;28;20033;-64
2023/12/05 09:04:23;;;;;;;30.42;12.60;;;;;;;-3.02;57.61;100511.69;5004685;28;20385;-65
2023/12/05 09:06:51;;;;;;;22.13;10.30;;;;;;;-3.18;57.65;100508.09;5002916;28;20029;-65
2023/12/05 09:09:19;;;;;;;23.40;12.13;;;;;;;-3.20;57.83;100507.22;5000277;28;20029;-65
2023/12/05 09:11:45;;;;;;;25.55;12.05;;;;;;;-3.12;57.59;100513.25;5004714;28;20052;-66
2023/12/05 09:14:12;;;;;;;28.10;13.82;;;;;;;-3.20;58.06;100520.00;4997292;28;20152;-65
2023/12/05 09:16:40;;;;;;;28.20;13.05;;;;;;;-3.12;57.66;100510.69;4998527;28;20074;-65
2023/12/05 09:19:11;;;;;;;25.95;11.77;;;;;;;-2.87;57.48;100523.72;5006545;28;20166;-65
2023/12/05 09:21:58;;;;;;;22.17;11.45;;;;;;;-2.94;57.13;100516.84;5002950;28;20404;-64
2023/12/05 09:24:51;;;;;;;26.80;12.68;;;;;;;-2.87;56.72;100523.72;4991004;28;20562;-65
2023/12/05 09:27:19;;;;;;;27.98;11.95;;;;;;;-3.07;57.17;100531.22;5003828;28;20033;-67
2023/12/05 09:29:44;;;;;;;28.58;12.02;;;;;;;-2.93;56.86;100527.09;5001686;28;20484;-65
2023/12/05 09:32:10;;;;;;;32.22;13.65;;;;;;;-2.87;56.87;100528.84;5006415;28;20588;-65
2023/12/05 09:34:35;;;;;;;28.95;13.65;;;;;;;-2.82;56.42;100529.78;5004909;28;20037;-68
2023/12/05 09:37:01;;;;;;;26.20;12.85;;;;;;;-3.07;56.95;100529.53;4985852;28;20041;-66
2023/12/05 09:39:34;;;;;;;27.58;13.57;;;;;;;-2.94;56.62;100529.63;5003834;28;20092;-66
2023/12/05 09:42:06;;;;;;;27.27;13.27;;;;;;;-2.91;56.94;100533.09;5007910;28;20021;-66
2023/12/05 09:44:38;;;;;;;25.83;12.93;;;;;;;-2.85;56.96;100545.06;4992568;28;20045;-68
2023/12/05 09:47:09;;;;;;;32.08;14.10;;;;;;;-3.15;56.86;100532.84;5009310;28;20239;-66
2023/12/05 09:49:38;;;;;;;30.02;12.48;;;;;;;-2.96;56.85;100539.00;5000484;28;20324;-66
2023/12/05 09:52:06;;;;;;;24.20;11.82;;;;;;;-3.00;56.83;100538.13;5000841;28;20032;-65
2023/12/05 09:54:32;;;;;;;28.30;13.27;;;;;;;-3.10;57.21;100549.06;4985994;28;20737;-66
2023/12/05 09:57:01;;;;;;;27.75;13.13;;;;;;;-3.07;56.90;100542.31;4996244;28;20540;-66
2023/12/05 09:59:31;;;;;;;25.83;13.23;;;;;;;-2.74;56.46;100543.47;5005114;28;20045;-64
2023/12/05 10:02:06;;;;;;;31.88;11.55;;;;;;;-2.57;56.16;100540.22;5016966;28;20034;-64
2023/12/05 10:04:44;;;;;;;26.25;13.27;;;;;;;-2.66;56.31;100539.28;5003670;28;21123;-66
2023/12/05 10:07:13;;;;;;;31.20;13.38;;;;;;;-3.05;56.63;100540.63;5005540;28;20044;-66
2023/12/05 10:09:41;;;;;;;26.08;13.45;;;;;;;-3.05;56.85;100535.53;4981464;28;20049;-65
2023/12/05 10:12:11;;;;;;;27.90;12.75;;;;;;;-2.96;56.93;100549.22;5005885;28;20029;-65
2023/12/05 10:14:38;;;;;;;29.17;13.63;;;;;;;-2.94;56.08;100548.38;4973592;28;20045;-66
2023/12/05 10:17:04;;;;;;;36.22;14.52;;;;;;;-2.83;56.55;100551.06;5001383;28;20025;-65
2023/12/05 10:19:37;;;;;;;28.90;14.57;;;;;;;-3.13;56.80;100547.34;5002172;28;20037;-66
2023/12/05 10:22:14;;;;;;;29.57;14.57;;;;;;;-3.00;56.68;100547.50;4985146;28;20034;-66
2023/12/05 10:24:43;;;;;;;28.20;13.95;;;;;;;-3.07;56.86;100546.56;4991937;28;20037;-65
2023/12/05 10:27:23;;;;;;;30.55;13.43;;;;;;;-2.90;56.27;100539.06;5006226;28;20124;-67
2023/12/05 10:29:56;;;;;;;30.13;14.10;;;;;;;-2.85;56.35;100545.06;5003224;28;20416;-66
2023/12/05 10:32:27;;;;;;;28.67;12.75;;;;;;;-2.87;56.41;100545.06;4994589;28;20270;-66
2023/12/05 10:35:01;;;;;;;28.35;13.13;;;;;;;-2.83;56.28;100533.16;4996716;28;20052;-65
2023/12/05 10:37:28;;;;;;;30.15;13.20;;;;;;;-2.95;56.28;100545.84;5005524;28;20048;-66
2023/12/05 10:40:12;;;;;;;28.08;14.30;;;;;;;-3.07;57.07;100539.75;4999599;28;20038;-66
2023/12/05 10:42:43;;;;;;;30.80;13.98;;;;;;;-2.98;56.47;100538.13;5003405;28;20061;-65
2023/12/05 10:45:16;;;;;;;39.28;14.00;;;;;;;-2.92;56.50;100541.59;5004894;28;20048;-66
2023/12/05 10:47:44;;;;;;;25.15;12.48;;;;;;;-3.17;56.94;100545.59;5003154;28;20069;-65
2023/12/05 10:50:10;;;;;;;30.00;13.68;;;;;;;-2.96;56.48;100534.75;5008082;28;20041;-65
2023/12/05 10:52:38;;;;;;;30.13;13.82;;;;;;;-2.69;55.88;100543.53;4998979;28;20037;-65
2023/12/05 10:55:07;;;;;;;33.35;13.43;;;;;;;-2.78;55.99;100538.31;5003973;28;20397;-65
2023/12/05 10:57:35;;;;;;;29.58;12.95;;;;;;;-2.61;55.72;100541.03;5017588;28;20029;-65
2023/12/05 11:00:03;;;;;;;26.48;12.70;;;;;;;-2.95;56.07;100538.16;5002637;28;20091;-65
2023/12/05 11:02:38;;;;;;;31.85;14.15;;;;;;;-2.85;56.26;100533.16;4995196;28;20041;-64
2023/12/05 11:05:08;;;;;;;31.98;14.63;;;;;;;-2.79;56.04;100528.94;4999709;28;20102;-65
2023/12/05 11:07:40;;;;;;;31.85;14.07;;;;;;;-2.95;56.28;100531.34;5002659;28;20029;-66
2023/12/05 11:10:10;;;;;;;26.67;13.70;;;;;;;-2.97;56.62;100532.19;4988892;28;20132;-65
2023/12/05 11:12:39;;;;;;;31.92;15.60;;;;;;;-2.74;55.41;100532.38;4991110;28;20038;-65
2023/12/05 11:15:11;;;;;;;30.52;14.40;;;;;;;-3.08;56.17;100525.25;4984722;28;20083;-65
2023/12/05 11:18:00;;;;;;;35.38;15.63;;;;;;;-2.93;55.94;100529.66;5001327;28;20129;-65
2023/12/05 11:20:43;;;;;;;34.63;14.52;;;;;;;-2.77;55.72;100530.66;5007150;28;20656;-64
2023/12/05 11:23:41;;;;;;;31.13;15.00;;;;;;;-2.49;55.51;100528.34;5005520;28;20056;-64
2023/12/05 11:26:22;;;;;;;31.20;13.57;;;;;;;-2.55;55.65;100530.88;5006316;28;20128;-65